createdAt,value
2023-10-10T00:00:56.311Z,97194.97
2023-10-10T00:03:24.410Z,97187.19
2023-10-10T00:05:51.313Z,97188.03
2023-10-10T00:08:21.633Z,97192.31
2023-10-10T00:10:52.444Z,97189.72
2023-10-10T00:13:20.508Z,97185.41
2023-10-10T00:15:57.485Z,97188.81
2023-10-10T00:18:31.432Z,97181.91
2023-10-10T00:21:18.960Z,97183.63
2023-10-10T00:23:48.830Z,97181.88
2023-10-10T00:26:24.370Z,97179.28
2023-10-10T00:28:59.040Z,97177.56
2023-10-10T00:31:28.344Z,97174.13
2023-10-10T00:33:56.449Z,97168.13
2023-10-10T00:36:29.329Z,97175.88
2023-10-10T00:39:16.351Z,97173.31
2023-10-10T00:41:52.738Z,97175.94
2023-10-10T00:44:20.739Z,97169.09
2023-10-10T00:46:53.164Z,97169.97
2023-10-10T00:49:24.628Z,97171.72
2023-10-10T00:51:55.025Z,97172.59
2023-10-10T00:54:27.969Z,97162.31
2023-10-10T00:56:56.881Z,97169.19
2023-10-10T00:59:36.021Z,97166.66
2023-10-10T01:02:06.972Z,97171.81
2023-10-10T01:04:40.269Z,97170.16
2023-10-10T01:07:19.779Z,97175.34
2023-10-10T01:09:57.974Z,97168.47
2023-10-10T01:12:40.440Z,97170.22
2023-10-10T01:15:38.358Z,97172.81
2023-10-10T01:18:14.345Z,97176.28
2023-10-10T01:20:50.480Z,97173.78
2023-10-10T01:23:19.815Z,97177.25
2023-10-10T01:25:48.399Z,97168.72
2023-10-10T01:28:21.795Z,97174.78
2023-10-10T01:31:05.292Z,97178.25
2023-10-10T01:33:36.308Z,97175.69
2023-10-10T01:36:04.366Z,97176.56
2023-10-10T01:38:43.035Z,97175.75
2023-10-10T01:41:32.034Z,97180.06
2023-10-10T01:44:19.071Z,97168.88
2023-10-10T01:46:47.041Z,97174.94
2023-10-10T01:49:15.380Z,97167.19
2023-10-10T01:51:44.043Z,97163.78
2023-10-10T01:54:24.470Z,97165.50
2023-10-10T01:56:55.393Z,97162.91
2023-10-10T01:59:25.829Z,97166.34
2023-10-10T02:01:59.125Z,97159.47
2023-10-10T02:04:35.144Z,97163.81
2023-10-10T02:07:05.908Z,97160.38
2023-10-10T02:09:35.488Z,97155.25
2023-10-10T02:12:17.953Z,97161.25
2023-10-10T02:14:44.674Z,97164.69
2023-10-10T02:17:23.905Z,97170.69
2023-10-10T02:19:54.920Z,97165.53
2023-10-10T02:22:34.169Z,97165.53
2023-10-10T02:25:20.647Z,97166.41
2023-10-10T02:28:04.141Z,97169.00
2023-10-10T02:30:38.332Z,97163.84
2023-10-10T02:33:15.556Z,97163.03
2023-10-10T02:35:56.202Z,97168.16
2023-10-10T02:38:40.666Z,97170.75
2023-10-10T02:41:18.565Z,97168.19
2023-10-10T02:43:57.533Z,97171.63
2023-10-10T02:46:37.945Z,97180.22
2023-10-10T02:49:28.203Z,97181.09
2023-10-10T02:51:56.933Z,97175.03
2023-10-10T02:54:58.291Z,97175.88
2023-10-10T02:57:27.364Z,97181.03
2023-10-10T03:00:18.346Z,97177.66
2023-10-10T03:02:54.933Z,97174.19
2023-10-10T03:05:41.697Z,97171.59
2023-10-10T03:08:28.964Z,97184.50
2023-10-10T03:10:55.805Z,97187.97
2023-10-10T03:13:33.356Z,97184.47
2023-10-10T03:16:37.046Z,97185.34
2023-10-10T03:19:03.638Z,97187.94
2023-10-10T03:21:50.266Z,97184.47
2023-10-10T03:24:29.262Z,97181.94
2023-10-10T03:27:14.580Z,97192.22
2023-10-10T03:29:51.299Z,97192.25
2023-10-10T03:32:34.896Z,97189.63
2023-10-10T03:35:22.613Z,97190.50
2023-10-10T03:37:55.615Z,97184.53
2023-10-10T03:40:28.036Z,97184.50
2023-10-10T03:43:13.993Z,97189.69
2023-10-10T03:46:15.632Z,97188.81
2023-10-10T03:49:00.535Z,97188.81
2023-10-10T03:51:45.449Z,97188.81
2023-10-10T03:54:30.364Z,97193.94
2023-10-10T03:57:15.342Z,97187.97
2023-10-10T04:00:00.774Z,97187.94
2023-10-10T04:02:46.192Z,97189.66
2023-10-10T04:05:31.556Z,97189.69
2023-10-10T04:08:16.572Z,97197.41
2023-10-10T04:11:06.080Z,97203.41
2023-10-10T04:13:51.142Z,97199.97
2023-10-10T04:16:36.394Z,97205.13
2023-10-10T04:19:21.780Z,97205.97
2023-10-10T04:22:06.652Z,97200.00
2023-10-10T04:24:51.595Z,97201.69
2023-10-10T04:27:36.540Z,97199.97
2023-10-10T04:30:21.973Z,97188.84
2023-10-10T04:33:06.939Z,97195.69
2023-10-10T04:35:52.184Z,97204.25
2023-10-10T04:38:37.297Z,97193.13
2023-10-10T04:41:22.549Z,97191.41
2023-10-10T04:44:08.848Z,97199.97
2023-10-10T04:46:53.965Z,97191.38
2023-10-10T04:49:39.559Z,97193.94
2023-10-10T04:52:24.500Z,97192.22
2023-10-10T04:55:09.258Z,97200.81
2023-10-10T04:57:55.738Z,97196.53
2023-10-10T05:00:42.206Z,97204.22
2023-10-10T05:03:27.593Z,97196.47
2023-10-10T05:06:20.804Z,97208.50
2023-10-10T05:09:06.418Z,97205.91
2023-10-10T05:11:51.693Z,97206.75
2023-10-10T05:14:36.530Z,97199.88
2023-10-10T05:17:21.388Z,97200.75
2023-10-10T05:20:10.884Z,97204.19
2023-10-10T05:22:55.766Z,97207.63
2023-10-10T05:25:24.911Z,97213.59
2023-10-10T05:27:59.940Z,97217.88
2023-10-10T05:30:28.853Z,97211.00
2023-10-10T05:33:03.617Z,97215.28
2023-10-10T05:35:35.187Z,97210.97
2023-10-10T05:38:02.500Z,97219.53
2023-10-10T05:40:29.693Z,97215.25
2023-10-10T05:42:58.497Z,97214.34
2023-10-10T05:45:24.952Z,97227.16
2023-10-10T05:47:52.088Z,97228.00
2023-10-10T05:50:20.091Z,97224.56
2023-10-10T05:52:46.624Z,97229.72
2023-10-10T05:55:14.012Z,97237.47
2023-10-10T05:57:43.819Z,97235.78
2023-10-10T06:00:12.437Z,97235.81
2023-10-10T06:02:39.505Z,97240.97
2023-10-10T06:05:06.831Z,97245.25
2023-10-10T06:07:34.340Z,97246.09
2023-10-10T06:10:01.134Z,97242.69
2023-10-10T06:12:27.757Z,97240.09
2023-10-10T06:14:55.783Z,97241.00
2023-10-10T06:17:25.349Z,97250.44
2023-10-10T06:19:51.893Z,97246.16
2023-10-10T06:22:18.363Z,97244.44
2023-10-10T06:24:45.034Z,97247.03
2023-10-10T06:27:14.304Z,97247.03
2023-10-10T06:29:42.059Z,97252.19
2023-10-10T06:32:12.107Z,97253.03
2023-10-10T06:34:39.638Z,97256.50
2023-10-10T06:37:09.004Z,97260.75
2023-10-10T06:39:36.528Z,97259.06
2023-10-10T06:42:05.341Z,97259.94
2023-10-10T06:44:36.708Z,97256.53
2023-10-10T06:47:10.463Z,97263.38
2023-10-10T06:49:55.544Z,97258.25
2023-10-10T06:52:24.739Z,97271.13
2023-10-10T06:54:57.489Z,97262.56
2023-10-10T06:57:38.713Z,97267.72
2023-10-10T07:00:17.923Z,97260.03
2023-10-10T07:02:49.669Z,97260.91
2023-10-10T07:05:17.053Z,97265.22
2023-10-10T07:07:43.825Z,97260.94
2023-10-10T07:10:26.695Z,97254.06
2023-10-10T07:12:55.342Z,97257.50
2023-10-10T07:15:23.019Z,97246.31
2023-10-10T07:17:50.642Z,97242.88
2023-10-10T07:20:18.094Z,97249.75
2023-10-10T07:22:47.925Z,97247.97
2023-10-10T07:25:33.508Z,97247.09
2023-10-10T07:28:05.658Z,97258.25
2023-10-10T07:30:35.666Z,97255.63
2023-10-10T07:33:08.282Z,97261.59
2023-10-10T07:35:37.750Z,97262.44
2023-10-10T07:38:07.904Z,97262.38
2023-10-10T07:40:39.423Z,97268.34
2023-10-10T07:43:08.795Z,97271.75
2023-10-10T07:45:48.353Z,97276.00
2023-10-10T07:48:14.942Z,97269.91
2023-10-10T07:50:56.893Z,97278.44
2023-10-10T07:53:32.597Z,97268.94
2023-10-10T07:55:59.108Z,97276.63
2023-10-10T07:58:45.155Z,97283.41
2023-10-10T08:01:19.423Z,97281.59
2023-10-10T08:03:47.857Z,97284.09
2023-10-10T08:06:36.000Z,97284.91
2023-10-10T08:09:12.866Z,97281.34
2023-10-10T08:11:41.380Z,97277.78
2023-10-10T08:14:10.059Z,97281.19
2023-10-10T08:16:41.638Z,97273.28
2023-10-10T08:19:10.105Z,97273.16
2023-10-10T08:21:39.700Z,97274.75
2023-10-10T08:24:08.220Z,97274.63
2023-10-10T08:26:42.193Z,97273.63
2023-10-10T08:29:13.861Z,97272.59
2023-10-10T08:31:45.149Z,97277.59
2023-10-10T08:34:16.326Z,97275.69
2023-10-10T08:37:11.192Z,97276.50
2023-10-10T08:39:37.908Z,97276.44
2023-10-10T08:42:16.028Z,97264.22
2023-10-10T08:44:50.620Z,97270.19
2023-10-10T08:47:26.979Z,97267.53
2023-10-10T08:49:54.401Z,97267.44
2023-10-10T08:52:23.800Z,97267.28
2023-10-10T08:54:52.972Z,97275.81
2023-10-10T08:57:28.850Z,97272.34
2023-10-10T08:59:57.329Z,97265.34
2023-10-10T09:02:24.462Z,97265.16
2023-10-10T09:04:55.245Z,97266.88
2023-10-10T09:07:21.804Z,97264.19
2023-10-10T09:10:06.696Z,97270.03
2023-10-10T09:12:56.763Z,97261.19
2023-10-10T09:15:28.703Z,97267.81
2023-10-10T09:18:15.810Z,97267.63
2023-10-10T09:20:46.091Z,97269.13
2023-10-10T09:23:26.386Z,97269.78
2023-10-10T09:26:20.636Z,97269.50
2023-10-10T09:28:58.383Z,97275.28
2023-10-10T09:31:32.468Z,97262.78
2023-10-10T09:34:14.754Z,97258.31
2023-10-10T09:36:54.117Z,97259.91
2023-10-10T09:39:38.912Z,97259.66
2023-10-10T09:42:31.500Z,97251.53
2023-10-10T09:45:01.385Z,97258.16
2023-10-10T09:47:40.595Z,97247.66
2023-10-10T09:50:32.362Z,97248.38
2023-10-10T09:52:59.808Z,97254.28
2023-10-10T09:55:32.688Z,97254.13
2023-10-10T09:58:12.327Z,97253.97
2023-10-10T10:00:39.592Z,97253.09
2023-10-10T10:03:28.062Z,97250.22
2023-10-10T10:07:07.518Z,97253.28
2023-10-10T10:09:52.641Z,97258.91
2023-10-10T10:12:37.358Z,97251.00
2023-10-10T10:15:25.824Z,97265.72
2023-10-10T10:18:12.934Z,97257.72
2023-10-10T10:20:50.634Z,97255.75
2023-10-10T10:23:27.237Z,97255.53
2023-10-10T10:26:13.723Z,97247.56
2023-10-10T10:28:44.016Z,97254.03
2023-10-10T10:31:29.272Z,97245.03
2023-10-10T10:34:06.773Z,97248.47
2023-10-10T10:36:43.786Z,97247.41
2023-10-10T10:39:24.874Z,97252.38
2023-10-10T10:41:55.053Z,97251.25
2023-10-10T10:44:45.864Z,97244.13
2023-10-10T10:47:32.074Z,97244.50
2023-10-10T10:49:59.193Z,97237.19
2023-10-10T10:52:56.884Z,97239.44
2023-10-10T10:55:28.672Z,97239.19
2023-10-10T10:58:21.674Z,97237.06
2023-10-10T11:01:00.522Z,97236.75
2023-10-10T11:03:45.427Z,97235.22
2023-10-10T11:06:15.506Z,97238.56
2023-10-10T11:08:57.752Z,97233.78
2023-10-10T11:11:31.207Z,97229.28
2023-10-10T11:14:17.168Z,97230.00
2023-10-10T11:16:47.302Z,97220.16
2023-10-10T11:19:24.319Z,97222.53
2023-10-10T11:22:06.573Z,97218.75
2023-10-10T11:24:35.750Z,97218.59
2023-10-10T11:27:08.630Z,97214.91
2023-10-10T11:29:54.865Z,97215.53
2023-10-10T11:32:27.555Z,97216.47
2023-10-10T11:35:00.896Z,97218.53
2023-10-10T11:40:28.939Z,97192.66
2023-10-10T11:43:00.402Z,97195.72
2023-10-10T11:45:27.951Z,97185.75
2023-10-10T11:48:06.496Z,97195.81
2023-10-10T11:51:46.563Z,97187.66
2023-10-10T11:54:29.871Z,97180.47
2023-10-10T11:57:04.488Z,97178.91
2023-10-10T11:59:34.765Z,97179.50
2023-10-10T12:02:15.560Z,97176.00
2023-10-10T12:04:48.927Z,97179.38
2023-10-10T12:07:16.091Z,97177.75
2023-10-10T12:09:46.148Z,97182.38
2023-10-10T12:12:14.217Z,97176.09
2023-10-10T12:14:44.312Z,97177.41
2023-10-10T12:17:11.727Z,97168.19
2023-10-10T12:19:38.189Z,97166.00
2023-10-10T12:22:12.438Z,97159.66
2023-10-10T12:24:42.724Z,97159.59
2023-10-10T12:27:12.034Z,97157.88
2023-10-10T12:29:44.250Z,97147.75
2023-10-10T12:32:17.609Z,97144.78
2023-10-10T12:34:47.363Z,97149.72
2023-10-10T12:37:16.982Z,97149.50
2023-10-10T12:39:44.700Z,97147.47
2023-10-10T12:42:11.215Z,97143.72
2023-10-10T12:44:37.719Z,97149.81
2023-10-10T12:47:07.805Z,97149.53
2023-10-10T12:49:45.310Z,97151.63
2023-10-10T12:54:47.396Z,97145.06
2023-10-10T12:57:17.428Z,97145.97
2023-10-10T12:59:48.028Z,97138.00
2023-10-10T13:02:17.912Z,97137.19
2023-10-10T13:04:48.020Z,97140.28
2023-10-10T13:07:17.367Z,97141.69
2023-10-10T13:09:44.586Z,97134.84
2023-10-10T13:12:19.581Z,97133.13
2023-10-10T13:14:51.997Z,97131.31
2023-10-10T13:17:24.842Z,97131.34
2023-10-10T13:19:53.362Z,97127.88
2023-10-10T13:22:22.983Z,97142.16
2023-10-10T13:24:50.736Z,97128.50
2023-10-10T13:27:18.808Z,97133.81
2023-10-10T13:29:47.456Z,97120.13
2023-10-10T13:32:13.922Z,97123.59
2023-10-10T13:34:40.691Z,97123.91
2023-10-10T13:37:09.068Z,97127.31
2023-10-10T13:39:45.247Z,97125.22
2023-10-10T13:42:15.488Z,97124.91
2023-10-10T13:44:42.805Z,97124.91
2023-10-10T13:47:09.697Z,97127.56
2023-10-10T13:49:45.232Z,97122.53
2023-10-10T13:52:13.121Z,97120.84
2023-10-10T13:54:39.792Z,97123.59
2023-10-10T13:57:07.964Z,97117.50
2023-10-10T13:59:35.302Z,97116.66
2023-10-10T14:02:05.083Z,97111.28
2023-10-10T14:04:46.864Z,97114.75
2023-10-10T14:09:51.911Z,97111.28
2023-10-10T14:12:33.426Z,97114.91
2023-10-10T14:15:00.923Z,97109.09
2023-10-10T14:19:55.353Z,97108.97
2023-10-10T14:22:27.873Z,97113.44
2023-10-10T14:24:58.771Z,97112.47
2023-10-10T14:27:27.529Z,97111.88
2023-10-10T14:29:56.092Z,97116.31
2023-10-10T14:32:38.010Z,97107.75
2023-10-10T14:35:05.959Z,97105.50
2023-10-10T14:37:49.836Z,97114.22
2023-10-10T14:40:24.488Z,97109.84
2023-10-10T14:42:53.462Z,97113.25
2023-10-10T14:45:25.834Z,97111.69
2023-10-10T14:47:56.515Z,97113.63
2023-10-10T14:50:24.544Z,97113.84
2023-10-10T14:52:55.356Z,97107.03
2023-10-10T14:55:26.757Z,97108.22
2023-10-10T14:57:56.423Z,97110.13
2023-10-10T15:00:24.847Z,97096.75
2023-10-10T15:02:55.071Z,97101.47
2023-10-10T15:05:25.132Z,97100.66
2023-10-10T15:07:53.986Z,97097.50
2023-10-10T15:10:27.498Z,97096.09
2023-10-10T15:12:54.865Z,97103.34
2023-10-10T15:15:23.801Z,97099.44
2023-10-10T15:17:51.167Z,97103.09
2023-10-10T15:20:18.002Z,97100.78
2023-10-10T15:22:44.729Z,97105.44
2023-10-10T15:25:14.138Z,97102.31
2023-10-10T15:27:42.802Z,97105.06
2023-10-10T15:30:10.469Z,97105.47
2023-10-10T15:32:54.014Z,97111.97
2023-10-10T15:35:21.529Z,97110.78
2023-10-10T15:37:48.951Z,97112.84
2023-10-10T15:40:22.546Z,97109.59
2023-10-10T15:42:52.220Z,97111.63
2023-10-10T15:45:21.844Z,97111.16
2023-10-10T15:47:55.905Z,97112.22
2023-10-10T15:50:23.226Z,97109.91
2023-10-10T15:52:50.439Z,97114.31
2023-10-10T15:55:25.540Z,97115.53
2023-10-10T15:57:54.153Z,97119.28
2023-10-10T16:00:34.086Z,97117.84
2023-10-10T16:03:08.199Z,97108.47
2023-10-10T16:05:40.819Z,97110.41
2023-10-10T16:08:09.766Z,97107.88
2023-10-10T16:10:38.921Z,97106.41
2023-10-10T16:13:08.607Z,97108.41
2023-10-10T16:15:35.506Z,97110.34
2023-10-10T16:18:02.222Z,97118.28
2023-10-10T16:20:29.024Z,97106.38
2023-10-10T16:22:56.790Z,97118.69
2023-10-10T16:25:25.227Z,97113.47
2023-10-10T16:27:52.138Z,97120.56
2023-10-10T16:30:18.802Z,97122.53
2023-10-10T16:32:45.895Z,97121.06
2023-10-10T16:35:13.153Z,97125.81
2023-10-10T16:37:41.735Z,97133.91
2023-10-10T16:40:10.416Z,97133.31
2023-10-10T16:42:37.135Z,97135.16
2023-10-10T16:45:04.037Z,97139.56
2023-10-10T16:47:30.614Z,97133.56
2023-10-10T16:49:57.162Z,97136.19
2023-10-10T16:52:27.515Z,97134.59
2023-10-10T16:54:54.229Z,97139.88
2023-10-10T16:57:24.188Z,97133.97
2023-10-10T16:59:52.146Z,97135.88
2023-10-10T17:02:18.621Z,97135.22
2023-10-10T17:04:47.219Z,97131.94
2023-10-10T17:07:13.809Z,97133.69
2023-10-10T17:09:41.104Z,97125.97
2023-10-10T17:12:07.749Z,97130.38
2023-10-10T17:14:38.448Z,97140.00
2023-10-10T17:17:05.165Z,97136.75
2023-10-10T17:19:36.830Z,97141.28
2023-10-10T17:22:03.681Z,97137.94
2023-10-10T17:24:31.369Z,97136.34
2023-10-10T17:26:58.235Z,97140.78
2023-10-10T17:29:24.967Z,97143.44
2023-10-10T17:31:54.137Z,97142.72
2023-10-10T17:34:23.187Z,97151.56
2023-10-10T17:36:51.409Z,97160.34
2023-10-10T17:39:18.301Z,97156.28
2023-10-10T17:41:48.882Z,97163.41
2023-10-10T17:44:18.244Z,97161.75
2023-10-10T17:46:58.838Z,97167.09
2023-10-10T17:49:25.348Z,97162.91
2023-10-10T17:51:54.385Z,97169.31
2023-10-10T17:54:21.040Z,97169.47
2023-10-10T17:56:48.591Z,97167.09
2023-10-10T17:59:17.969Z,97166.56
2023-10-10T18:01:45.188Z,97168.63
2023-10-10T18:04:14.780Z,97168.00
2023-10-10T18:06:41.938Z,97163.81
2023-10-10T18:09:11.415Z,97163.06
2023-10-10T18:11:38.893Z,97170.84
2023-10-10T18:14:06.517Z,97167.34
2023-10-10T18:16:35.375Z,97169.06
2023-10-10T18:19:02.408Z,97166.47
2023-10-10T18:21:31.172Z,97166.47
2023-10-10T18:23:58.064Z,97163.03
2023-10-10T18:26:25.642Z,97166.72
2023-10-10T18:28:53.268Z,97168.00
2023-10-10T18:31:25.972Z,97173.69
2023-10-10T18:33:53.321Z,97174.91
2023-10-10T18:36:21.555Z,97172.47
2023-10-10T18:38:49.427Z,97174.22
2023-10-10T18:41:24.326Z,97181.16
2023-10-10T18:43:54.823Z,97177.84
2023-10-10T18:46:45.948Z,97183.06
2023-10-10T18:49:14.254Z,97178.88
2023-10-10T18:51:40.992Z,97179.97
2023-10-10T18:54:12.051Z,97178.34
2023-10-10T18:56:39.033Z,97184.63
2023-10-10T18:59:05.833Z,97179.63
2023-10-10T19:01:35.597Z,97179.72
2023-10-10T19:04:02.275Z,97177.19
2023-10-10T19:06:30.068Z,97187.63
2023-10-10T19:09:01.331Z,97189.41
2023-10-10T19:11:28.848Z,97181.66
2023-10-10T19:13:56.826Z,97179.19
2023-10-10T19:16:23.505Z,97186.16
2023-10-10T19:18:50.137Z,97181.00
2023-10-10T19:21:18.464Z,97188.81
2023-10-10T19:23:51.884Z,97183.66
2023-10-10T19:26:18.849Z,97185.44
2023-10-10T19:28:46.814Z,97194.03
2023-10-10T19:31:15.816Z,97189.75
2023-10-10T19:33:42.710Z,97182.84
2023-10-10T19:36:09.562Z,97179.41
2023-10-10T19:38:36.167Z,97182.00
2023-10-10T19:41:08.697Z,97180.28
2023-10-10T19:43:40.329Z,97181.19
2023-10-10T19:46:13.584Z,97185.53
2023-10-10T19:48:41.880Z,97176.91
2023-10-10T19:51:14.390Z,97183.00
2023-10-10T19:53:40.907Z,97182.19
2023-10-10T19:56:13.825Z,97183.09
2023-10-10T19:58:42.956Z,97180.56
2023-10-10T20:01:10.173Z,97178.91
2023-10-10T20:03:37.343Z,97176.31
2023-10-10T20:06:07.237Z,97172.91
2023-10-10T20:08:35.647Z,97170.34
2023-10-10T20:11:04.843Z,97175.50
2023-10-10T20:13:31.652Z,97171.22
2023-10-10T20:15:58.263Z,97169.47
2023-10-10T20:18:26.145Z,97164.31
2023-10-10T20:20:53.160Z,97160.00
2023-10-10T20:23:21.658Z,97162.66
2023-10-10T20:25:51.748Z,97166.13
2023-10-10T20:28:18.356Z,97171.31
2023-10-10T20:30:46.692Z,97167.06
2023-10-10T20:33:17.549Z,97173.97
2023-10-10T20:35:45.959Z,97174.88
2023-10-10T20:38:13.586Z,97164.53
2023-10-10T20:40:44.445Z,97164.59
2023-10-10T20:43:13.795Z,97170.63
2023-10-10T20:45:41.006Z,97163.78
2023-10-10T20:48:23.017Z,97170.69
2023-10-10T20:50:49.795Z,97166.38
2023-10-10T20:53:17.517Z,97169.00
2023-10-10T20:55:47.386Z,97165.56
2023-10-10T20:58:15.216Z,97168.19
2023-10-10T21:00:42.345Z,97169.06
2023-10-10T21:03:11.576Z,97168.19
2023-10-10T21:05:44.308Z,97169.09
2023-10-10T21:08:11.115Z,97170.81
2023-10-10T21:10:41.993Z,97165.69
2023-10-10T21:13:09.039Z,97171.72
2023-10-10T21:15:35.818Z,97170.00
2023-10-10T21:18:02.453Z,97166.59
2023-10-10T21:20:31.702Z,97161.44
2023-10-10T21:23:00.223Z,97163.22
2023-10-10T21:25:27.583Z,97169.28
2023-10-10T21:27:58.011Z,97165.03
2023-10-10T21:30:34.604Z,97171.91
2023-10-10T21:33:03.475Z,97161.59
2023-10-10T21:35:31.389Z,97167.66
2023-10-10T21:38:03.270Z,97165.06
2023-10-10T21:40:32.952Z,97173.72
2023-10-10T21:43:00.664Z,97170.28
2023-10-10T21:45:33.426Z,97180.63
2023-10-10T21:48:00.544Z,97178.94
2023-10-10T21:50:27.343Z,97179.81
2023-10-10T21:52:54.158Z,97180.69
2023-10-10T21:55:22.787Z,97173.00
2023-10-10T21:57:51.058Z,97179.00
2023-10-10T22:00:25.929Z,97181.63
2023-10-10T22:02:53.316Z,97174.78
2023-10-10T22:05:20.700Z,97170.47
2023-10-10T22:07:48.396Z,97173.94
2023-10-10T22:10:21.378Z,97165.38
2023-10-10T22:12:56.520Z,97173.09
2023-10-10T22:15:26.146Z,97171.41
2023-10-10T22:17:55.942Z,97164.53
2023-10-10T22:20:24.118Z,97166.25
2023-10-10T22:22:50.764Z,97156.81
2023-10-10T22:25:20.410Z,97155.97
2023-10-10T22:27:48.045Z,97159.41
2023-10-10T22:30:16.857Z,97162.00
2023-10-10T22:32:47.243Z,97159.44
2023-10-10T22:35:14.728Z,97160.31
2023-10-10T22:37:41.570Z,97157.75
2023-10-10T22:40:13.012Z,97156.88
2023-10-10T22:42:39.746Z,97156.00
2023-10-10T22:45:08.343Z,97156.03
2023-10-10T22:47:35.035Z,97152.63
2023-10-10T22:50:06.475Z,97151.75
2023-10-10T22:52:39.054Z,97154.38
2023-10-10T22:55:08.360Z,97148.34
2023-10-10T22:57:38.041Z,97153.53
2023-10-10T23:00:14.305Z,97150.94
2023-10-10T23:02:49.969Z,97150.13
2023-10-10T23:05:17.987Z,97151.84
2023-10-10T23:07:46.353Z,97152.69
2023-10-10T23:10:13.870Z,97150.13
2023-10-10T23:12:41.978Z,97152.72
2023-10-10T23:15:12.868Z,97149.28
2023-10-10T23:17:41.170Z,97149.28
2023-10-10T23:20:14.205Z,97147.59
2023-10-10T23:22:41.633Z,97144.97
2023-10-10T23:25:13.298Z,97145.00
2023-10-10T23:27:43.350Z,97140.69
2023-10-10T23:30:14.117Z,97151.00
2023-10-10T23:32:42.739Z,97144.13
2023-10-10T23:35:10.130Z,97143.28
2023-10-10T23:37:43.230Z,97145.84
2023-10-10T23:40:17.424Z,97152.75
2023-10-10T23:42:45.121Z,97148.44
2023-10-10T23:45:13.650Z,97151.88
2023-10-10T23:47:43.520Z,97150.16
2023-10-10T23:50:13.761Z,97150.16
2023-10-10T23:52:45.825Z,97147.59
2023-10-10T23:55:17.813Z,97148.44
2023-10-10T23:57:46.636Z,97148.44
